ナンディ の空港の天気 - METARとTAF

ナンディ国際空港 ( NFFN / NAN ) - フィジー ナンディ (ビティレブ島)
飛行場実況気象(Metar)
観測時間02/18 11:00 FJT (02/17 23:00 UTC)
風向・風速北西 4m/s
視程10km以上
天気現象
全天の4割程度の雲 雲底高度 850m
全天の4割程度の雲 雲底高度 1460m
気温31℃
湿度75%
気圧1009hPa
METARNFFN 172300Z 31008KT 270V340 9999 SCT028TCU SCT048 31/26 Q1009 NOSIG
過去の天気等 Google飛行場航空写真 Wunderground天気予報

過去48時間のMETAR

飛行場予報(TAF)
発表時間: 2/18 05:01 FJT (2/17 17:01 UTC)
予報対象時間: 18日6時 FJT ~ 19日6時 FJT
風向・風速北東 3m/s
視程10km以上
天気現象弱いしゅう雨
全天の4割程度の雲 雲底高度 760m
全天の4割程度の雲 雲底高度 1370m
18日6時 FJT ~ 18日12時 FJT に一時的に
視程5000m
天気現象雷雨
少しの積乱雲 雲底高度 550m
18日7時 FJT ~ 18日9時 FJT に徐々に
風向・風速西北西 5m/s
18日14時 FJT ~ 18日20時 FJT に 確率 30% で一時的に
視程3000m
天気現象雷雨
全天の8割程度の雲 雲底高度 460m
少しの積乱雲 雲底高度 550m
18日20時 FJT ~ 18日24時 FJT に 確率 30% で一時的に
視程5000m
天気現象しゅう雨
全天の8割程度の雲 雲底高度 460m
TAF NFFN 171701Z 1718/1818 04006KT 9999 -SHRA SCT025 SCT045
TEMPO 1718/1724 5000 TSRA FEW018CB
BECMG 1719/1721 30010KT
PROB30 TEMPO 1802/1808 3000 TSRA BKN015 FEW018CB
PROB30 TEMPO 1808/1812 5000 SHRA BKN015